createdAt,value
2018-09-20T00:00:33.657Z,5.50
2018-09-20T00:03:02.232Z,6.50
2018-09-20T00:05:30.847Z,5.97
2018-09-20T00:08:02.323Z,6.33
2018-09-20T00:10:30.918Z,6.07
2018-09-20T00:12:59.474Z,5.73
2018-09-20T00:15:28.230Z,6.37
2018-09-20T00:17:56.827Z,6.87
2018-09-20T00:20:25.437Z,6.77
2018-09-20T00:22:53.935Z,7.83
2018-09-20T00:25:22.573Z,6.30
2018-09-20T00:27:51.289Z,5.60
2018-09-20T00:30:19.953Z,5.97
2018-09-20T00:32:48.618Z,6.40
2018-09-20T00:35:17.314Z,7.23
2018-09-20T00:37:45.912Z,7.00
2018-09-20T00:40:14.525Z,6.20
2018-09-20T00:42:43.017Z,6.47
2018-09-20T00:45:11.654Z,7.70
2018-09-20T00:47:40.236Z,6.40
2018-09-20T00:50:08.857Z,6.47
2018-09-20T00:52:37.562Z,5.83
2018-09-20T00:55:06.186Z,6.17
2018-09-20T00:57:34.812Z,7.53
2018-09-20T01:00:03.468Z,6.67
2018-09-20T01:02:32.043Z,7.43
2018-09-20T01:05:00.618Z,7.30
2018-09-20T01:07:29.314Z,6.47
2018-09-20T01:09:57.870Z,6.90
2018-09-20T01:12:26.380Z,7.70
2018-09-20T01:14:54.920Z,8.20
2018-09-20T01:17:23.539Z,6.77
2018-09-20T01:19:52.172Z,7.03
2018-09-20T01:22:20.789Z,7.20
2018-09-20T01:24:49.287Z,6.80
2018-09-20T01:27:17.799Z,7.23
2018-09-20T01:29:46.327Z,7.50
2018-09-20T01:32:14.891Z,6.60
2018-09-20T01:34:43.447Z,6.87
2018-09-20T01:37:12.040Z,6.53
2018-09-20T01:39:40.840Z,6.00
2018-09-20T01:42:09.470Z,7.57
2018-09-20T01:44:38.147Z,7.27
2018-09-20T01:47:06.783Z,8.53
2018-09-20T01:49:35.438Z,8.50
2018-09-20T01:52:04.013Z,7.03
2018-09-20T01:54:32.549Z,7.60
2018-09-20T01:57:01.225Z,7.77
2018-09-20T01:59:29.800Z,7.17
2018-09-20T02:01:58.419Z,6.73
2018-09-20T02:04:26.970Z,7.47
2018-09-20T02:06:55.622Z,7.20
2018-09-20T02:09:24.081Z,7.80
2018-09-20T02:11:52.718Z,7.50
2018-09-20T02:14:21.272Z,7.37
2018-09-20T02:16:50.028Z,6.77
2018-09-20T02:19:18.503Z,8.33
2018-09-20T02:21:47.259Z,7.90
2018-09-20T02:24:15.934Z,8.60
2018-09-20T02:26:44.569Z,8.40
2018-09-20T02:29:13.230Z,7.63
2018-09-20T02:31:41.732Z,7.83
2018-09-20T02:34:10.344Z,7.87
2018-09-20T02:36:38.876Z,8.43
2018-09-20T02:39:09.010Z,8.10
2018-09-20T02:41:37.965Z,8.60
2018-09-20T02:44:06.465Z,9.80
2018-09-20T02:46:35.042Z,8.80
2018-09-20T02:49:03.694Z,8.60
2018-09-20T02:51:32.240Z,9.03
2018-09-20T02:54:00.820Z,8.90
2018-09-20T02:56:29.407Z,9.60
2018-09-20T02:58:57.983Z,9.27
2018-09-20T03:01:26.546Z,8.40
2018-09-20T03:03:55.003Z,9.53
2018-09-20T03:06:23.637Z,8.93
2018-09-20T03:08:52.165Z,8.47
2018-09-20T03:11:20.729Z,8.27
2018-09-20T03:13:49.144Z,8.47
2018-09-20T03:16:17.799Z,9.20
2018-09-20T03:18:46.403Z,8.10
2018-09-20T03:21:14.932Z,8.33
2018-09-20T03:23:43.431Z,8.07
2018-09-20T03:26:11.926Z,9.60
2018-09-20T03:28:40.411Z,9.77
2018-09-20T03:31:08.992Z,8.27
2018-09-20T03:33:37.636Z,8.67
2018-09-20T03:36:06.287Z,8.30
2018-09-20T03:38:34.839Z,8.50
2018-09-20T03:41:03.375Z,10.57
2018-09-20T03:43:31.950Z,8.77
2018-09-20T03:46:00.665Z,8.77
2018-09-20T03:48:29.300Z,9.70
2018-09-20T03:50:57.864Z,9.97
2018-09-20T03:53:26.471Z,8.80
2018-09-20T03:55:55.135Z,8.70
2018-09-20T03:58:23.643Z,9.77
2018-09-20T04:00:52.158Z,10.07
2018-09-20T04:03:20.661Z,9.30
2018-09-20T04:05:49.266Z,9.77
2018-09-20T04:08:17.943Z,9.77
2018-09-20T04:10:46.387Z,9.30
2018-09-20T04:13:15.055Z,9.20
2018-09-20T04:15:43.691Z,8.90
2018-09-20T04:18:12.306Z,9.23
2018-09-20T04:20:40.892Z,9.30
2018-09-20T04:23:09.500Z,9.17
2018-09-20T04:25:38.113Z,10.57
2018-09-20T04:28:06.676Z,8.77
2018-09-20T04:30:35.229Z,8.90
2018-09-20T04:33:03.780Z,9.90
2018-09-20T04:35:32.355Z,10.33
2018-09-20T04:38:00.919Z,9.17
2018-09-20T04:40:29.524Z,9.40
2018-09-20T04:42:58.072Z,10.60
2018-09-20T04:45:26.617Z,9.70
2018-09-20T04:47:55.242Z,9.67
2018-09-20T04:50:23.778Z,10.03
2018-09-20T04:52:52.401Z,10.43
2018-09-20T04:55:20.964Z,16.10
2018-09-20T04:57:49.521Z,12.17
2018-09-20T05:00:19.620Z,11.63
2018-09-20T05:02:49.447Z,11.77
2018-09-20T05:05:18.861Z,11.07
2018-09-20T05:07:47.766Z,11.73
2018-09-20T05:10:16.493Z,11.60
2018-09-20T05:12:45.880Z,12.57
2018-09-20T05:15:14.622Z,12.67
2018-09-20T05:17:43.171Z,10.90
2018-09-20T05:20:11.773Z,12.27
2018-09-20T05:22:40.881Z,10.40
2018-09-20T05:25:09.478Z,12.30
2018-09-20T05:27:38.164Z,10.63
2018-09-20T05:30:07.521Z,12.93
2018-09-20T05:32:36.126Z,10.87
2018-09-20T05:35:04.581Z,10.77
2018-09-20T05:37:33.152Z,10.60
2018-09-20T05:40:01.644Z,11.53
2018-09-20T05:42:30.260Z,11.00
2018-09-20T05:44:58.862Z,10.97
2018-09-20T05:47:27.324Z,10.03
2018-09-20T05:49:58.595Z,10.50
2018-09-20T05:52:27.223Z,10.57
2018-09-20T05:54:55.676Z,11.33
2018-09-20T05:57:24.232Z,9.60
2018-09-20T05:59:53.311Z,10.07
2018-09-20T06:02:21.744Z,10.37
2018-09-20T06:04:50.225Z,10.93
2018-09-20T06:07:18.823Z,10.20
2018-09-20T06:09:47.355Z,10.20
2018-09-20T06:12:15.815Z,10.83
2018-09-20T06:14:44.285Z,10.73
2018-09-20T06:17:12.760Z,9.17
2018-09-20T06:19:41.265Z,9.40
2018-09-20T06:22:10.386Z,8.80
2018-09-20T06:24:38.815Z,10.03
2018-09-20T06:27:07.685Z,9.43
2018-09-20T06:29:36.297Z,8.67
2018-09-20T06:32:05.111Z,9.40
2018-09-20T06:34:33.826Z,9.87
2018-09-20T06:37:02.322Z,9.03
2018-09-20T06:39:30.737Z,8.50
2018-09-20T06:41:59.349Z,9.13
2018-09-20T06:44:28.011Z,9.00
2018-09-20T06:46:57.030Z,8.80
2018-09-20T06:49:25.719Z,9.20
2018-09-20T06:51:54.488Z,9.23
2018-09-20T06:54:22.982Z,7.80
2018-09-20T06:56:51.521Z,8.77
2018-09-20T06:59:19.953Z,8.07
2018-09-20T07:01:48.681Z,6.70
2018-09-20T07:04:17.127Z,7.60
2018-09-20T07:06:45.751Z,6.10
2018-09-20T07:09:15.028Z,6.27
2018-09-20T07:11:43.455Z,6.20
2018-09-20T07:14:11.857Z,6.33
2018-09-20T07:16:40.665Z,5.57
2018-09-20T07:19:09.448Z,6.63
2018-09-20T07:21:37.879Z,6.60
2018-09-20T07:24:06.636Z,6.70
2018-09-20T07:26:35.114Z,6.00
2018-09-20T07:29:04.282Z,6.13
2018-09-20T07:31:32.784Z,5.87
2018-09-20T07:34:01.248Z,5.97
2018-09-20T07:36:29.945Z,5.83
2018-09-20T07:38:58.415Z,5.30
2018-09-20T07:41:26.828Z,5.57
2018-09-20T07:43:55.274Z,4.63
2018-09-20T07:46:23.715Z,5.93
2018-09-20T07:48:52.228Z,4.27
2018-09-20T07:51:20.772Z,5.70
2018-09-20T07:53:49.207Z,5.40
2018-09-20T07:56:17.647Z,4.90
2018-09-20T07:58:46.247Z,4.90
2018-09-20T08:01:15.772Z,5.10
2018-09-20T08:03:44.466Z,4.53
2018-09-20T08:06:12.944Z,4.70
2018-09-20T08:08:41.606Z,4.27
2018-09-20T08:11:10.499Z,4.30
2018-09-20T08:13:39.165Z,5.50
2018-09-20T08:16:08.922Z,5.27
2018-09-20T08:18:37.556Z,4.60
2018-09-20T08:21:06.687Z,4.80
2018-09-20T08:23:36.056Z,5.00
2018-09-20T08:26:04.752Z,4.30
2018-09-20T08:28:33.410Z,4.27
2018-09-20T08:31:02.728Z,4.30
2018-09-20T08:33:31.457Z,3.60
2018-09-20T08:36:00.116Z,4.70
2018-09-20T08:38:28.968Z,3.97
2018-09-20T08:40:57.643Z,4.10
2018-09-20T08:43:26.678Z,3.57
2018-09-20T08:45:55.430Z,3.60
2018-09-20T08:48:23.901Z,2.80
2018-09-20T08:50:52.494Z,3.10
2018-09-20T08:53:21.156Z,2.80
2018-09-20T08:55:49.956Z,2.62
2018-09-20T08:58:18.552Z,2.20
2018-09-20T09:00:47.086Z,2.65
2018-09-20T09:03:15.581Z,2.80
2018-09-20T09:05:44.085Z,1.87
2018-09-20T09:08:12.726Z,2.10
2018-09-20T09:10:41.336Z,2.08
2018-09-20T09:13:09.945Z,2.15
2018-09-20T09:15:38.652Z,1.90
2018-09-20T09:18:07.214Z,2.40
2018-09-20T09:20:35.827Z,2.65
2018-09-20T09:23:04.337Z,2.10
2018-09-20T09:25:33.212Z,2.13
2018-09-20T09:28:01.904Z,3.20
2018-09-20T09:30:30.672Z,2.40
2018-09-20T09:32:59.783Z,2.00
2018-09-20T09:35:28.323Z,2.08
2018-09-20T09:37:57.224Z,1.80
2018-09-20T09:40:26.736Z,1.80
2018-09-20T09:42:56.175Z,2.47
2018-09-20T09:45:25.266Z,3.00
2018-09-20T09:47:54.219Z,3.20
2018-09-20T09:50:22.760Z,3.37
2018-09-20T09:52:51.627Z,3.87
2018-09-20T09:55:20.585Z,3.93
2018-09-20T09:57:52.491Z,3.60
2018-09-20T10:00:27.454Z,3.60
2018-09-20T10:02:58.184Z,3.27
2018-09-20T10:05:26.679Z,4.00
2018-09-20T10:07:55.939Z,3.53
2018-09-20T10:10:25.322Z,3.57
2018-09-20T10:12:54.497Z,3.60
2018-09-20T10:15:23.528Z,3.73
2018-09-20T10:17:52.223Z,3.10
2018-09-20T10:20:21.407Z,3.47
2018-09-20T10:22:50.249Z,8.13
2018-09-20T10:25:19.255Z,3.70
2018-09-20T10:27:48.269Z,4.13
2018-09-20T10:30:17.067Z,4.37
2018-09-20T10:32:46.291Z,3.67
2018-09-20T10:35:15.280Z,4.53
2018-09-20T10:37:44.267Z,4.60
2018-09-20T10:40:13.480Z,5.50
2018-09-20T10:42:42.178Z,5.47
2018-09-20T10:45:11.210Z,4.30
2018-09-20T10:47:39.877Z,10.77
2018-09-20T10:50:09.205Z,18.17
2018-09-20T10:52:37.960Z,9.73
2018-09-20T10:55:06.816Z,8.23
2018-09-20T10:57:35.690Z,7.73
2018-09-20T11:00:05.865Z,6.30
2018-09-20T11:02:35.734Z,5.43
2018-09-20T11:05:05.567Z,3.57
2018-09-20T11:07:34.240Z,2.50
2018-09-20T11:10:02.749Z,3.00
2018-09-20T11:12:31.299Z,3.10
2018-09-20T11:15:00.002Z,3.17
2018-09-20T11:17:28.694Z,4.03
2018-09-20T11:19:57.362Z,2.90
2018-09-20T11:22:26.714Z,2.73
2018-09-20T11:24:56.204Z,3.50
2018-09-20T11:27:25.415Z,3.43
2018-09-20T11:29:54.347Z,3.40
2018-09-20T11:32:23.039Z,8.10
2018-09-20T11:34:52.002Z,8.90
2018-09-20T11:37:20.559Z,3.00
2018-09-20T11:39:49.113Z,3.20
2018-09-20T11:42:17.674Z,3.20
2018-09-20T11:44:46.233Z,3.73
2018-09-20T11:47:14.854Z,2.90
2018-09-20T11:49:43.966Z,3.10
2018-09-20T11:52:12.630Z,3.17
2018-09-20T11:54:41.440Z,3.00
2018-09-20T11:57:10.242Z,3.70
2018-09-20T11:59:38.800Z,3.50
2018-09-20T12:02:07.337Z,2.70
2018-09-20T12:04:36.091Z,3.50
2018-09-20T12:07:05.037Z,3.03
2018-09-20T12:09:34.599Z,3.03
2018-09-20T12:12:03.214Z,3.07
2018-09-20T12:14:31.834Z,3.10
2018-09-20T12:17:00.526Z,3.00
2018-09-20T12:19:29.386Z,4.00
2018-09-20T12:21:57.878Z,3.03
2018-09-20T12:24:26.354Z,3.83
2018-09-20T12:26:54.841Z,2.90
2018-09-20T12:29:23.499Z,2.97
2018-09-20T12:31:52.199Z,3.30
2018-09-20T12:34:21.025Z,2.57
2018-09-20T12:36:49.973Z,3.40
2018-09-20T12:39:19.389Z,3.03
2018-09-20T12:41:47.948Z,3.43
2018-09-20T12:44:16.736Z,3.67
2018-09-20T12:46:45.354Z,3.00
2018-09-20T12:49:13.788Z,2.70
2018-09-20T12:51:42.547Z,2.80
2018-09-20T12:54:11.378Z,3.30
2018-09-20T12:56:40.236Z,2.90
2018-09-20T12:59:08.807Z,3.07
2018-09-20T13:01:37.542Z,4.10
2018-09-20T13:04:06.079Z,3.00
2018-09-20T13:06:34.714Z,3.57
2018-09-20T13:09:03.450Z,3.10
2018-09-20T13:11:32.029Z,3.00
2018-09-20T13:14:00.708Z,2.63
2018-09-20T13:16:29.183Z,3.80
2018-09-20T13:18:57.612Z,3.47
2018-09-20T13:21:26.287Z,3.20
2018-09-20T13:23:54.852Z,3.50
2018-09-20T13:26:23.344Z,2.87
2018-09-20T13:28:52.074Z,2.97
2018-09-20T13:31:20.584Z,2.73
2018-09-20T13:33:49.068Z,3.00
2018-09-20T13:36:17.791Z,3.10
2018-09-20T13:38:46.462Z,3.37
2018-09-20T13:41:15.188Z,3.57
2018-09-20T13:43:43.834Z,3.10
2018-09-20T13:46:12.607Z,3.30
2018-09-20T13:48:41.188Z,3.00
2018-09-20T13:51:09.833Z,3.00
2018-09-20T13:53:38.469Z,2.70
2018-09-20T13:56:08.489Z,2.47
2018-09-20T13:58:37.617Z,3.27
2018-09-20T14:01:07.394Z,3.70
2018-09-20T14:03:36.278Z,3.40
2018-09-20T14:06:05.947Z,2.97
2018-09-20T14:08:34.937Z,3.40
2018-09-20T14:11:03.677Z,2.90
2018-09-20T14:13:32.635Z,3.50
2018-09-20T14:16:01.149Z,3.43
2018-09-20T14:18:29.774Z,2.80
2018-09-20T14:20:58.505Z,3.47
2018-09-20T14:23:27.450Z,3.60
2018-09-20T14:25:55.866Z,3.07
2018-09-20T14:28:24.382Z,2.40
2018-09-20T14:30:53.057Z,2.93
2018-09-20T14:33:21.657Z,2.90
2018-09-20T14:35:50.269Z,2.90
2018-09-20T14:38:18.823Z,3.57
2018-09-20T14:40:47.558Z,3.50
2018-09-20T14:43:15.974Z,2.83
2018-09-20T14:45:44.471Z,2.93
2018-09-20T14:48:12.972Z,3.10
2018-09-20T14:50:41.684Z,3.67
2018-09-20T14:53:10.218Z,2.70
2018-09-20T14:55:38.680Z,2.93
2018-09-20T14:58:08.788Z,3.10
2018-09-20T15:00:37.384Z,2.70
2018-09-20T15:03:07.540Z,2.80
2018-09-20T15:05:35.993Z,2.70
2018-09-20T15:08:04.741Z,2.60
2018-09-20T15:10:33.305Z,2.43
2018-09-20T15:13:02.265Z,2.20
2018-09-20T15:15:31.858Z,2.53
2018-09-20T15:18:00.694Z,2.57
2018-09-20T15:20:29.225Z,2.70
2018-09-20T15:22:57.925Z,2.50
2018-09-20T15:25:27.480Z,3.07
2018-09-20T15:27:57.359Z,2.60
2018-09-20T15:30:25.932Z,2.80
2018-09-20T15:32:54.608Z,2.97
2018-09-20T15:35:23.198Z,2.93
2018-09-20T15:37:51.993Z,2.80
2018-09-20T15:40:20.656Z,2.30
2018-09-20T15:42:49.519Z,2.90
2018-09-20T15:45:18.426Z,2.77
2018-09-20T15:47:46.947Z,2.60
2018-09-20T15:50:15.557Z,2.77
2018-09-20T15:52:44.052Z,3.20
2018-09-20T15:55:12.608Z,2.53
2018-09-20T15:57:41.243Z,3.33
2018-09-20T16:00:10.036Z,2.60
2018-09-20T16:02:38.582Z,2.43
2018-09-20T16:05:07.419Z,2.70
2018-09-20T16:07:35.992Z,2.53
2018-09-20T16:10:04.984Z,2.70
2018-09-20T16:12:33.821Z,2.50
2018-09-20T16:15:02.392Z,2.50
2018-09-20T16:17:31.103Z,2.50
2018-09-20T16:19:59.857Z,2.90
2018-09-20T16:22:28.681Z,3.17
2018-09-20T16:24:57.313Z,2.70
2018-09-20T16:27:59.211Z,2.70
2018-09-20T16:30:40.368Z,3.30
2018-09-20T16:33:34.458Z,3.43
2018-09-20T16:36:11.715Z,2.67
2018-09-20T16:38:50.534Z,3.00
2018-09-20T16:41:29.455Z,2.63
2018-09-20T16:43:58.098Z,3.07
2018-09-20T16:46:26.583Z,2.90
2018-09-20T16:48:55.128Z,2.37
2018-09-20T16:51:23.720Z,2.77
2018-09-20T16:53:52.280Z,2.63
2018-09-20T16:56:20.858Z,2.50
2018-09-20T16:58:50.990Z,3.30
2018-09-20T17:01:20.355Z,3.00
2018-09-20T17:03:48.884Z,3.00
2018-09-20T17:06:18.079Z,2.50
2018-09-20T17:08:47.379Z,2.57
2018-09-20T17:11:16.034Z,2.57
2018-09-20T17:13:44.577Z,3.00
2018-09-20T17:16:13.157Z,3.03
2018-09-20T17:18:41.734Z,2.90
2018-09-20T17:21:10.537Z,2.77
2018-09-20T17:23:39.290Z,3.60
2018-09-20T17:26:07.849Z,3.47
2018-09-20T17:28:36.536Z,4.00
2018-09-20T17:31:05.413Z,3.10
2018-09-20T17:33:34.086Z,2.20
2018-09-20T17:36:03.153Z,3.03
2018-09-20T17:38:33.153Z,3.13
2018-09-20T17:41:08.117Z,3.23
2018-09-20T17:43:41.413Z,3.70
2018-09-20T17:46:10.773Z,3.20
2018-09-20T17:48:42.027Z,2.90
2018-09-20T17:51:12.343Z,3.70
2018-09-20T17:53:41.611Z,3.87
2018-09-20T17:56:11.153Z,4.10
2018-09-20T17:58:40.403Z,3.60
2018-09-20T18:01:08.971Z,3.50
2018-09-20T18:03:37.554Z,3.20
2018-09-20T18:06:06.268Z,3.67
2018-09-20T18:08:35.304Z,4.07
2018-09-20T18:11:04.227Z,4.93
2018-09-20T18:13:32.856Z,3.50
2018-09-20T18:16:01.452Z,3.70
2018-09-20T18:18:30.047Z,3.40
2018-09-20T18:20:58.821Z,3.97
2018-09-20T18:23:27.351Z,3.40
2018-09-20T18:25:55.937Z,3.67
2018-09-20T18:28:24.849Z,3.67
2018-09-20T18:30:53.391Z,2.53
2018-09-20T18:33:22.519Z,3.43
2018-09-20T18:35:51.120Z,3.33
2018-09-20T18:38:19.595Z,3.80
2018-09-20T18:40:48.286Z,2.63
2018-09-20T18:43:16.799Z,3.27
2018-09-20T18:45:45.397Z,2.57
2018-09-20T18:48:14.014Z,2.70
2018-09-20T18:50:42.783Z,3.70
2018-09-20T18:53:11.305Z,3.20
2018-09-20T18:55:39.919Z,3.13
2018-09-20T18:58:08.385Z,3.77
2018-09-20T19:00:36.995Z,3.30
2018-09-20T19:03:05.583Z,3.17
2018-09-20T19:05:34.071Z,3.60
2018-09-20T19:08:02.718Z,3.40
2018-09-20T19:10:31.314Z,3.17
2018-09-20T19:12:59.941Z,3.60
2018-09-20T19:15:28.345Z,3.03
2018-09-20T19:17:56.896Z,3.33
2018-09-20T19:20:25.375Z,2.90
2018-09-20T19:22:53.937Z,3.23
2018-09-20T19:25:22.592Z,3.10
2018-09-20T19:27:51.181Z,3.60
2018-09-20T19:30:19.664Z,3.83
2018-09-20T19:32:48.191Z,3.90
2018-09-20T19:35:16.830Z,3.27
2018-09-20T19:37:45.313Z,3.97
2018-09-20T19:40:13.915Z,3.87
2018-09-20T19:42:42.407Z,2.93
2018-09-20T19:45:11.049Z,4.07
2018-09-20T19:47:39.626Z,3.60
2018-09-20T19:50:08.312Z,3.50
2018-09-20T19:52:36.886Z,3.73
2018-09-20T19:55:05.559Z,3.23
2018-09-20T19:57:34.111Z,3.00
2018-09-20T20:00:02.806Z,3.53
2018-09-20T20:02:31.381Z,3.23
2018-09-20T20:04:59.935Z,3.70
2018-09-20T20:07:28.472Z,3.97
2018-09-20T20:09:57.066Z,2.80
2018-09-20T20:12:25.565Z,3.50
2018-09-20T20:14:54.104Z,4.03
2018-09-20T20:17:22.620Z,3.70
2018-09-20T20:19:51.215Z,3.70
2018-09-20T20:22:19.763Z,5.37
2018-09-20T20:24:48.308Z,2.80
2018-09-20T20:27:16.915Z,3.70
2018-09-20T20:29:45.550Z,3.53
2018-09-20T20:32:14.107Z,3.10
2018-09-20T20:34:42.702Z,3.40
2018-09-20T20:37:11.396Z,3.33
2018-09-20T20:39:39.985Z,3.33
2018-09-20T20:42:08.608Z,3.00
2018-09-20T20:44:37.133Z,3.77
2018-09-20T20:47:05.719Z,3.33
2018-09-20T20:49:34.293Z,3.27
2018-09-20T20:52:02.920Z,3.20
2018-09-20T20:54:31.478Z,3.20
2018-09-20T20:57:00.079Z,3.10
2018-09-20T20:59:28.665Z,3.63
2018-09-20T21:01:57.276Z,3.13
2018-09-20T21:04:25.779Z,3.00
2018-09-20T21:06:54.393Z,3.70
2018-09-20T21:09:22.980Z,3.20
2018-09-20T21:11:51.575Z,3.67
2018-09-20T21:14:20.130Z,3.97
2018-09-20T21:16:48.666Z,3.80
2018-09-20T21:19:17.202Z,3.73
2018-09-20T21:21:45.819Z,3.70
2018-09-20T21:24:14.381Z,3.47
2018-09-20T21:26:43.008Z,3.60
2018-09-20T21:29:11.524Z,3.60
2018-09-20T21:31:40.144Z,4.00
2018-09-20T21:34:08.695Z,3.60
2018-09-20T21:36:37.309Z,3.70
2018-09-20T21:39:08.803Z,3.30
2018-09-20T21:41:37.422Z,4.37
2018-09-20T21:44:06.078Z,3.50
2018-09-20T21:46:34.693Z,3.70
2018-09-20T21:49:03.268Z,4.07
2018-09-20T21:51:31.844Z,3.47
2018-09-20T21:54:00.580Z,3.40
2018-09-20T21:56:29.182Z,4.30
2018-09-20T21:58:57.815Z,4.40
2018-09-20T22:01:26.471Z,3.90
2018-09-20T22:03:54.979Z,4.10
2018-09-20T22:06:23.476Z,3.40
2018-09-20T22:08:52.063Z,3.97
2018-09-20T22:11:20.660Z,3.93
2018-09-20T22:13:49.209Z,4.00
2018-09-20T22:16:17.818Z,4.43
2018-09-20T22:18:46.493Z,3.70
2018-09-20T22:21:15.201Z,3.93
2018-09-20T22:23:43.757Z,3.97
2018-09-20T22:26:12.340Z,4.13
2018-09-20T22:28:40.956Z,4.00
2018-09-20T22:31:09.675Z,3.40
2018-09-20T22:33:38.227Z,3.93
2018-09-20T22:36:06.828Z,4.60
2018-09-20T22:38:35.378Z,4.57
2018-09-20T22:41:03.923Z,3.90
2018-09-20T22:43:32.750Z,4.30
2018-09-20T22:46:01.359Z,4.53
2018-09-20T22:48:29.904Z,5.90
2018-09-20T22:50:58.526Z,4.13
2018-09-20T22:53:27.102Z,4.10
2018-09-20T22:55:55.666Z,4.40
2018-09-20T22:58:24.212Z,3.73
2018-09-20T23:00:52.783Z,4.20
2018-09-20T23:03:21.375Z,5.00
2018-09-20T23:05:49.868Z,3.90
2018-09-20T23:08:18.465Z,4.93
2018-09-20T23:10:46.916Z,4.40
2018-09-20T23:13:15.473Z,4.37
2018-09-20T23:15:44.021Z,4.20
2018-09-20T23:18:12.666Z,3.80
2018-09-20T23:20:41.316Z,4.50
2018-09-20T23:23:09.957Z,4.50
2018-09-20T23:25:38.573Z,4.30
2018-09-20T23:28:07.249Z,4.30
2018-09-20T23:30:35.904Z,4.20
2018-09-20T23:33:04.505Z,4.53
2018-09-20T23:35:33.115Z,4.30
2018-09-20T23:38:02.410Z,4.07
2018-09-20T23:40:30.986Z,3.70
2018-09-20T23:42:59.469Z,4.70
2018-09-20T23:45:27.997Z,4.63
2018-09-20T23:47:56.647Z,5.23
2018-09-20T23:50:25.228Z,4.30
2018-09-20T23:52:53.883Z,4.30
2018-09-20T23:55:22.498Z,4.00
2018-09-20T23:57:51.015Z,4.30
